Time;durP1;ratioP1;P1;durP2;ratioP2;P2;SDS_P1;SDS_P2;PMS_P1;PMS_P2;Temp;Humidity;BMP_temperature;BMP_pressure;BME280_temperature;BME280_humidity;BME280_pressure;Samples;Min_cycle;Max_cycle;Signal;HPM_P1;HPM_P2
2021/03/26 00:00:13;;;;;;;27.00;17.17;;;;;;;6.13;100.00;101722.97;5035393;28;20025;-72
2021/03/26 00:02:59;;;;;;;25.92;15.80;;;;;;;6.03;100.00;101734.97;5035549;28;20492;-73
2021/03/26 00:05:46;;;;;;;25.50;15.90;;;;;;;6.06;100.00;101726.34;5035865;28;20079;-72
2021/03/26 00:08:32;;;;;;;25.77;16.90;;;;;;;5.70;100.00;101723.94;5035115;28;20032;-73
2021/03/26 00:11:19;;;;;;;25.73;16.55;;;;;;;5.90;100.00;101719.16;5035673;28;20046;-73
2021/03/26 00:14:05;;;;;;;25.10;16.33;;;;;;;6.05;100.00;101721.97;5035864;28;20040;-72
2021/03/26 00:16:50;;;;;;;27.02;16.77;;;;;;;6.03;100.00;101723.69;5034495;28;20045;-72
2021/03/26 00:19:36;;;;;;;27.13;17.58;;;;;;;6.22;100.00;101725.75;5035231;28;20426;-73
2021/03/26 00:22:22;;;;;;;31.48;18.58;;;;;;;5.79;100.00;101729.28;5035395;28;20104;-73
2021/03/26 00:25:10;;;;;;;29.13;19.05;;;;;;;5.96;100.00;101727.03;5035310;28;20449;-73
2021/03/26 00:27:56;;;;;;;34.42;20.05;;;;;;;6.11;100.00;101722.94;5035300;28;20036;-73
2021/03/26 00:30:42;;;;;;;34.38;21.13;;;;;;;5.90;100.00;101730.41;5035132;28;20017;-72
2021/03/26 00:33:27;;;;;;;33.65;21.45;;;;;;;5.88;100.00;101729.50;5034513;28;20025;-73
2021/03/26 00:36:13;;;;;;;30.63;20.38;;;;;;;5.89;100.00;101728.66;5035979;28;20116;-74
2021/03/26 00:38:59;;;;;;;32.72;20.95;;;;;;;5.77;100.00;101731.00;5034764;28;20107;-73
2021/03/26 00:41:44;;;;;;;30.67;21.08;;;;;;;5.88;100.00;101733.81;5035394;28;20091;-73
2021/03/26 00:44:30;;;;;;;33.03;21.92;;;;;;;5.85;100.00;101729.44;5033710;28;20053;-72
2021/03/26 00:47:16;;;;;;;34.10;23.52;;;;;;;5.65;100.00;101737.69;5034720;28;20055;-73
2021/03/26 00:50:07;;;;;;;34.63;22.52;;;;;;;5.75;100.00;101726.63;5035299;28;20053;-73
2021/03/26 00:52:52;;;;;;;31.20;22.20;;;;;;;5.71;100.00;101738.72;5034884;28;20076;-73
2021/03/26 00:55:38;;;;;;;32.10;22.38;;;;;;;5.62;100.00;101740.25;5034785;28;20025;-73
2021/03/26 00:58:25;;;;;;;29.45;20.15;;;;;;;5.28;100.00;101738.72;5034542;28;20017;-73
2021/03/26 01:01:11;;;;;;;28.17;18.45;;;;;;;5.46;100.00;101744.28;5035015;28;20037;-72
2021/03/26 01:03:56;;;;;;;25.67;17.38;;;;;;;5.46;100.00;101735.63;5034175;28;20060;-73
2021/03/26 01:06:42;;;;;;;29.38;18.02;;;;;;;5.44;100.00;101740.78;5034970;28;20162;-73
2021/03/26 01:09:28;;;;;;;26.13;17.55;;;;;;;5.43;100.00;101738.16;5034454;28;20017;-72
2021/03/26 01:12:14;;;;;;;28.08;18.55;;;;;;;5.51;100.00;101746.97;5034470;28;20036;-72
2021/03/26 01:14:59;;;;;;;26.23;17.88;;;;;;;5.60;100.00;101739.34;5034049;28;20100;-72
2021/03/26 01:17:49;;;;;;;27.23;18.33;;;;;;;5.31;100.00;101738.78;5034576;28;20082;-73
2021/03/26 01:20:37;;;;;;;27.42;17.95;;;;;;;5.33;100.00;101743.19;5033879;28;20025;-73
2021/03/26 01:23:24;;;;;;;23.73;16.65;;;;;;;5.50;100.00;101743.47;5033470;28;20022;-73
2021/03/26 01:26:10;;;;;;;27.13;18.50;;;;;;;5.61;100.00;101749.78;5033207;28;20040;-72
2021/03/26 01:28:55;;;;;;;25.33;16.67;;;;;;;5.36;100.00;101752.75;5034047;28;20096;-72
2021/03/26 01:31:41;;;;;;;27.48;18.83;;;;;;;5.13;100.00;101754.88;5034374;28;20088;-72
2021/03/26 01:34:27;;;;;;;27.52;18.05;;;;;;;5.04;100.00;101759.88;5034339;28;20370;-73
2021/03/26 01:37:13;;;;;;;25.50;18.08;;;;;;;5.30;100.00;101760.41;5034254;28;20155;-73
2021/03/26 01:39:59;;;;;;;28.08;18.40;;;;;;;5.05;100.00;101763.34;5033731;28;20469;-73
2021/03/26 01:42:45;;;;;;;29.15;18.95;;;;;;;5.04;100.00;101764.19;5037566;28;20064;-73
2021/03/26 01:45:31;;;;;;;27.38;18.13;;;;;;;4.96;100.00;101758.84;5053603;28;20021;-72
2021/03/26 01:48:38;;;;;;;26.77;18.27;;;;;;;4.68;100.00;101764.28;5053195;28;20021;-73
2021/03/26 01:51:42;;;;;;;30.73;20.50;;;;;;;4.85;100.00;101770.72;5053721;28;20024;-73
2021/03/26 01:54:31;;;;;;;26.58;18.05;;;;;;;4.61;100.00;101770.16;5054042;28;20100;-73
2021/03/26 01:57:17;;;;;;;25.40;18.50;;;;;;;4.81;100.00;101776.69;5053850;28;20040;-73
2021/03/26 02:00:20;;;;;;;27.35;18.13;;;;;;;4.83;100.00;101769.78;5053273;28;20134;-72
2021/03/26 02:03:26;;;;;;;27.02;17.70;;;;;;;4.59;100.00;101776.16;5052945;28;20017;-72
2021/03/26 02:06:22;;;;;;;25.27;17.58;;;;;;;4.81;100.00;101780.97;5053632;28;20116;-73
2021/03/26 02:09:20;;;;;;;27.30;17.63;;;;;;;4.72;100.00;101784.25;5053365;28;20083;-73
2021/03/26 02:12:09;;;;;;;26.60;18.48;;;;;;;4.82;100.00;101782.72;5053263;28;20044;-73
2021/03/26 02:14:58;;;;;;;26.70;17.80;;;;;;;4.87;100.00;101783.72;5038255;28;20028;-72
2021/03/26 02:17:45;;;;;;;25.85;17.88;;;;;;;4.68;100.00;101785.03;5053130;28;20020;-72
2021/03/26 02:20:30;;;;;;;28.33;19.02;;;;;;;4.68;100.00;101785.03;5052956;28;20116;-72
2021/03/26 02:23:20;;;;;;;28.20;19.08;;;;;;;4.78;100.00;101791.28;5053313;28;20025;-72
2021/03/26 02:26:16;;;;;;;29.38;19.45;;;;;;;4.70;100.00;101798.91;5053727;28;20025;-72
2021/03/26 02:29:22;;;;;;;27.35;18.98;;;;;;;4.39;100.00;101793.81;5053286;28;20028;-72
2021/03/26 02:32:36;;;;;;;28.13;19.08;;;;;;;4.82;100.00;101794.00;5053578;28;20025;-73
2021/03/26 02:35:31;;;;;;;28.13;18.80;;;;;;;4.47;100.00;101796.63;5039848;28;20116;-73
2021/03/26 02:38:19;;;;;;;27.52;18.42;;;;;;;4.65;100.00;101794.44;5053655;28;20047;-73
2021/03/26 02:41:17;;;;;;;29.02;19.20;;;;;;;4.67;100.00;101795.38;5053357;28;20445;-73
2021/03/26 02:44:22;;;;;;;30.83;21.35;;;;;;;4.28;100.00;101794.41;5053344;28;20115;-73
2021/03/26 02:47:34;;;;;;;31.98;20.73;;;;;;;3.95;100.00;101788.38;5052918;28;20446;-72
2021/03/26 02:50:27;;;;;;;35.83;23.50;;;;;;;4.18;100.00;101795.88;5052841;28;20057;-73
2021/03/26 02:53:22;;;;;;;35.80;22.83;;;;;;;4.35;100.00;101798.91;5055877;28;20424;-72
2021/03/26 02:56:33;;;;;;;39.17;24.67;;;;;;;4.65;100.00;101795.34;5057270;28;20033;-73
2021/03/26 02:59:26;;;;;;;41.50;27.33;;;;;;;4.20;100.00;101793.34;5056888;28;20029;-72
2021/03/26 03:02:15;;;;;;;41.80;27.85;;;;;;;4.40;100.00;101797.31;5056718;28;20409;-72
2021/03/26 03:05:12;;;;;;;36.97;24.67;;;;;;;4.53;100.00;101792.44;5057117;28;20032;-73
2021/03/26 03:08:09;;;;;;;38.08;24.92;;;;;;;4.53;100.00;101804.53;5056620;28;20052;-72
2021/03/26 03:11:01;;;;;;;36.20;23.50;;;;;;;4.26;100.00;101806.47;5056318;28;20339;-72
2021/03/26 03:13:46;;;;;;;34.15;24.25;;;;;;;4.38;100.00;101804.19;5056438;28;20131;-73
2021/03/26 03:17:04;;;;;;;36.38;23.50;;;;;;;4.76;100.00;101809.44;5054833;28;20484;-72
2021/03/26 03:19:55;;;;;;;34.22;21.95;;;;;;;4.45;100.00;101814.75;5052749;28;20044;-73
2021/03/26 03:22:45;;;;;;;34.13;22.13;;;;;;;4.28;100.00;101821.25;5056182;28;20064;-73
2021/03/26 03:25:32;;;;;;;36.92;22.20;;;;;;;3.81;100.00;101820.81;5040830;28;20119;-72
2021/03/26 03:28:26;;;;;;;34.38;22.02;;;;;;;3.05;100.00;101822.06;5056002;28;20028;-72
2021/03/26 03:31:27;;;;;;;37.95;24.02;;;;;;;3.35;100.00;101823.84;5056563;28;20021;-73
2021/03/26 03:34:18;;;;;;;38.05;24.25;;;;;;;3.21;100.00;101817.38;5056348;28;20025;-75
2021/03/26 03:37:07;;;;;;;47.38;27.15;;;;;;;3.33;100.00;101827.19;5056706;28;20032;-72
2021/03/26 03:40:18;;;;;;;52.30;28.58;;;;;;;3.52;100.00;101827.78;5055284;28;20025;-72
2021/03/26 03:43:12;;;;;;;50.20;28.58;;;;;;;3.21;100.00;101829.44;5055257;28;20091;-72
2021/03/26 03:46:06;;;;;;;46.80;28.50;;;;;;;2.81;100.00;101831.66;5055902;28;20094;-72
2021/03/26 03:49:20;;;;;;;45.08;29.02;;;;;;;3.13;100.00;101841.31;5056297;28;20412;-73
2021/03/26 03:52:11;;;;;;;41.03;26.25;;;;;;;3.05;100.00;101846.22;5055928;28;20040;-73
2021/03/26 03:54:56;;;;;;;37.45;23.83;;;;;;;3.20;100.00;101838.03;5056557;28;20067;-73
2021/03/26 03:58:07;;;;;;;37.05;23.55;;;;;;;3.07;100.00;101839.41;5055585;28;20095;-72
2021/03/26 04:01:42;;;;;;;37.85;24.15;;;;;;;3.41;100.00;101843.84;5041785;28;20446;-72
2021/03/26 04:04:57;;;;;;;39.40;23.85;;;;;;;3.05;100.00;101841.03;5008614;28;20064;-72
2021/03/26 04:07:55;;;;;;;38.63;24.20;;;;;;;3.56;100.00;101849.47;5055492;28;20029;-72
2021/03/26 04:10:46;;;;;;;36.33;22.40;;;;;;;3.32;100.00;101852.25;5056276;28;20036;-73
2021/03/26 04:13:41;;;;;;;33.58;21.92;;;;;;;3.72;100.00;101854.25;5041086;28;20151;-73
2021/03/26 04:16:28;;;;;;;34.88;22.08;;;;;;;3.90;100.00;101852.19;5055798;28;20035;-72
2021/03/26 04:19:22;;;;;;;32.47;20.50;;;;;;;3.67;100.00;101851.56;5055493;28;20020;-72
2021/03/26 04:22:11;;;;;;;30.63;19.98;;;;;;;3.69;100.00;101852.47;5055651;28;20037;-72
2021/03/26 04:25:33;;;;;;;36.25;21.45;;;;;;;3.92;100.00;101856.56;5055975;28;20040;-72
2021/03/26 04:28:29;;;;;;;29.95;19.65;;;;;;;4.10;100.00;101859.66;5054494;28;20036;-73
2021/03/26 04:31:22;;;;;;;29.45;19.40;;;;;;;4.11;100.00;101856.22;5055253;28;20036;-73
2021/03/26 04:34:09;;;;;;;29.58;20.10;;;;;;;4.26;100.00;101860.94;5054918;28;20465;-73
2021/03/26 04:37:06;;;;;;;28.58;18.83;;;;;;;4.35;100.00;101867.22;5055814;28;20055;-72
2021/03/26 04:40:17;;;;;;;28.23;19.40;;;;;;;4.38;100.00;101867.31;5054554;28;20017;-73
2021/03/26 04:43:08;;;;;;;29.98;19.98;;;;;;;4.38;100.00;101871.66;5054645;28;20049;-72
2021/03/26 04:46:00;;;;;;;30.42;20.33;;;;;;;4.45;100.00;101874.41;5055070;28;20057;-72
2021/03/26 04:49:00;;;;;;;30.50;19.75;;;;;;;4.76;100.00;101881.25;5055061;28;20029;-73
2021/03/26 04:52:04;;;;;;;30.65;19.23;;;;;;;4.27;100.00;101879.13;5054403;28;20025;-73
2021/03/26 04:55:12;;;;;;;28.35;18.70;;;;;;;3.52;100.00;101878.72;5055193;28;20040;-73
2021/03/26 04:58:03;;;;;;;28.95;19.00;;;;;;;3.98;100.00;101884.38;5053643;28;20089;-73
2021/03/26 05:00:53;;;;;;;37.83;21.00;;;;;;;3.88;100.00;101883.25;5054514;28;20092;-74
2021/03/26 05:03:45;;;;;;;32.15;21.42;;;;;;;3.40;100.00;101892.19;5053598;28;20453;-73
2021/03/26 05:06:36;;;;;;;35.78;20.98;;;;;;;3.64;100.00;101877.38;5054337;28;20060;-75
2021/03/26 05:09:28;;;;;;;29.90;19.58;;;;;;;4.00;100.00;101888.78;5053868;28;20025;-72
2021/03/26 05:12:22;;;;;;;32.53;20.80;;;;;;;3.81;100.00;101898.56;5039734;28;20135;-73
2021/03/26 05:15:12;;;;;;;28.25;19.60;;;;;;;4.46;100.00;101886.53;5053315;28;20138;-73
2021/03/26 05:18:06;;;;;;;30.83;20.17;;;;;;;4.16;100.00;101901.31;5038896;28;20322;-73
2021/03/26 05:21:03;;;;;;;29.13;18.20;;;;;;;4.64;100.00;101896.50;5039047;28;20029;-73
2021/03/26 05:23:56;;;;;;;25.98;17.15;;;;;;;4.23;100.00;101897.16;5053694;28;20025;-73
2021/03/26 05:26:42;;;;;;;27.10;17.00;;;;;;;4.12;100.00;101894.28;5053640;28;20461;-73
2021/03/26 05:29:28;;;;;;;26.95;16.13;;;;;;;3.72;100.00;101890.53;5053696;28;20040;-72
2021/03/26 05:32:20;;;;;;;30.00;16.83;;;;;;;3.91;100.00;101893.69;5053783;28;20024;-72
2021/03/26 05:35:13;;;;;;;29.95;17.35;;;;;;;4.46;100.00;101893.47;5053596;28;20035;-72
2021/03/26 05:38:16;;;;;;;22.92;15.95;;;;;;;4.81;100.00;101893.50;5053896;28;20454;-73
2021/03/26 05:41:17;;;;;;;26.60;16.33;;;;;;;5.33;100.00;101900.78;5053221;28;20032;-73
2021/03/26 05:44:23;;;;;;;27.02;16.25;;;;;;;5.33;100.00;101900.78;5053655;28;20111;-73
2021/03/26 05:47:38;;;;;;;29.02;16.08;;;;;;;5.85;100.00;101900.19;5039368;28;20029;-73
2021/03/26 05:50:43;;;;;;;26.58;16.95;;;;;;;6.05;100.00;101906.66;5054235;28;20045;-73
2021/03/26 05:53:36;;;;;;;30.35;15.70;;;;;;;6.26;100.00;101907.97;5053380;28;20400;-73
2021/03/26 05:56:32;;;;;;;22.90;14.80;;;;;;;5.81;100.00;101900.97;5039053;28;20021;-74
2021/03/26 05:59:56;;;;;;;21.65;14.20;;;;;;;6.16;100.00;101908.66;5053199;28;20104;-74
2021/03/26 06:03:20;;;;;;;20.13;13.95;;;;;;;6.52;100.00;101914.53;4998838;28;20033;-75
2021/03/26 06:06:24;;;;;;;23.00;14.50;;;;;;;6.38;100.00;101916.00;4971778;28;20035;-75
2021/03/26 06:09:37;;;;;;;26.55;15.13;;;;;;;6.51;100.00;101904.97;4973037;28;20046;-72
2021/03/26 06:12:53;;;;;;;25.08;15.50;;;;;;;7.06;100.00;101914.56;5052981;28;20468;-74
2021/03/26 06:16:07;;;;;;;28.60;15.65;;;;;;;6.77;100.00;101918.44;5037892;28;20025;-73
2021/03/26 06:19:30;;;;;;;28.88;16.65;;;;;;;6.98;100.00;101913.56;5053887;28;20380;-74
2021/03/26 06:22:37;;;;;;;25.92;16.52;;;;;;;7.08;100.00;101920.69;5037891;28;20025;-73
2021/03/26 06:25:35;;;;;;;25.65;16.02;;;;;;;6.51;100.00;101924.94;5038612;28;20186;-76
2021/03/26 06:28:27;;;;;;;29.20;17.50;;;;;;;6.39;100.00;101928.16;5041377;28;20035;-72
2021/03/26 06:31:32;;;;;;;25.25;16.08;;;;;;;6.76;100.00;101932.31;5057824;28;20031;-73
2021/03/26 06:34:44;;;;;;;29.95;17.20;;;;;;;6.60;100.00;101938.09;5042873;28;20025;-73
2021/03/26 06:37:40;;;;;;;34.45;18.52;;;;;;;6.55;100.00;101935.41;5058199;28;20029;-75
2021/03/26 06:40:38;;;;;;;34.05;19.27;;;;;;;6.93;100.00;101931.75;5042301;28;20366;-73
2021/03/26 06:43:48;;;;;;;27.08;16.90;;;;;;;7.30;100.00;101928.88;5056939;28;20530;-75
2021/03/26 06:47:08;;;;;;;29.73;17.65;;;;;;;6.73;100.00;101945.28;5041460;28;20043;-75
2021/03/26 06:50:30;;;;;;;34.97;18.65;;;;;;;6.89;100.00;101936.88;5052911;28;20041;-75
2021/03/26 06:53:37;;;;;;;25.08;16.65;;;;;;;7.16;100.00;101945.16;5041924;28;20021;-73
2021/03/26 06:56:48;;;;;;;20.05;12.55;;;;;;;7.87;100.00;101945.31;5057096;28;20041;-72
2021/03/26 06:59:52;;;;;;;23.13;14.98;;;;;;;7.66;100.00;101959.81;5055802;28;20041;-75
2021/03/26 07:02:47;;;;;;;16.10;10.63;;;;;;;7.12;100.00;101954.63;5056376;28;20083;-75
2021/03/26 07:05:53;;;;;;;13.75;9.68;;;;;;;7.27;100.00;101952.28;5055158;28;20021;-75
2021/03/26 07:09:03;;;;;;;13.60;9.30;;;;;;;7.45;100.00;101957.78;5056363;28;20079;-73
2021/03/26 07:12:14;;;;;;;12.43;9.40;;;;;;;7.79;100.00;101962.59;5041604;28;20033;-75
2021/03/26 07:15:07;;;;;;;12.88;9.25;;;;;;;7.43;100.00;101962.06;5041920;28;20040;-75
2021/03/26 07:18:17;;;;;;;12.73;9.20;;;;;;;7.50;100.00;101965.66;5041772;28;20497;-73
2021/03/26 07:21:30;;;;;;;12.90;9.60;;;;;;;7.51;100.00;101964.81;5056190;28;20408;-75
2021/03/26 07:24:50;;;;;;;17.88;10.75;;;;;;;7.76;100.00;101967.78;5059697;28;20021;-75
2021/03/26 07:27:48;;;;;;;13.00;8.98;;;;;;;7.38;100.00;101978.50;5055316;28;20075;-75
2021/03/26 07:30:45;;;;;;;12.80;8.88;;;;;;;7.47;100.00;101978.66;5042074;28;20107;-74
2021/03/26 07:33:43;;;;;;;12.63;9.52;;;;;;;7.96;100.00;101983.72;5040912;28;20089;-74
2021/03/26 07:36:49;;;;;;;14.52;9.25;;;;;;;7.97;100.00;101990.69;5055961;28;20123;-76
2021/03/26 07:39:55;;;;;;;14.27;9.65;;;;;;;8.08;100.00;101989.94;5054884;28;20036;-75
2021/03/26 07:43:02;;;;;;;20.45;10.38;;;;;;;8.04;100.00;101989.91;5055805;28;20060;-74
2021/03/26 07:46:07;;;;;;;15.73;10.65;;;;;;;8.43;100.00;101993.91;5054979;28;20381;-74
2021/03/26 07:49:01;;;;;;;15.52;10.55;;;;;;;8.38;100.00;102000.81;5055894;28;20029;-75
2021/03/26 07:52:09;;;;;;;17.73;11.25;;;;;;;8.29;100.00;101997.22;5054934;28;20029;-75
2021/03/26 07:55:31;;;;;;;17.90;11.60;;;;;;;8.66;100.00;102002.88;5056454;28;20017;-72
2021/03/26 07:58:42;;;;;;;17.80;11.38;;;;;;;9.29;100.00;102005.22;5055026;28;20020;-75
2021/03/26 08:01:46;;;;;;;17.00;11.18;;;;;;;9.03;100.00;102012.84;5042422;28;20029;-75
2021/03/26 08:04:31;;;;;;;17.33;11.75;;;;;;;9.52;98.41;102012.38;5040888;28;20025;-76
2021/03/26 08:07:43;;;;;;;17.70;11.80;;;;;;;9.08;100.00;102012.84;5054713;28;20037;-73
2021/03/26 08:10:35;;;;;;;15.63;10.52;;;;;;;9.47;100.00;102021.94;5054616;28;20504;-75
2021/03/26 08:13:35;;;;;;;15.93;10.35;;;;;;;9.43;100.00;102021.88;5054479;28;20049;-74
2021/03/26 08:16:51;;;;;;;16.15;9.93;;;;;;;9.88;99.83;102027.44;5055038;28;20021;-74
2021/03/26 08:20:15;;;;;;;15.77;10.23;;;;;;;9.77;100.00;102023.91;5042480;28;20021;-73
2021/03/26 08:23:25;;;;;;;16.13;9.82;;;;;;;9.74;100.00;102029.97;5044200;28;20319;-72
2021/03/26 08:26:40;;;;;;;13.38;9.80;;;;;;;10.56;98.60;102035.69;5043159;28;20029;-73
2021/03/26 08:29:47;;;;;;;12.65;8.90;;;;;;;10.45;98.01;102034.75;5049293;28;20025;-72
2021/03/26 08:32:54;;;;;;;13.45;9.45;;;;;;;10.25;97.68;102031.19;5061661;28;20131;-73
2021/03/26 08:36:17;;;;;;;14.82;9.15;;;;;;;10.71;90.68;102027.84;5042630;28;20170;-73
2021/03/26 08:39:16;;;;;;;13.02;8.63;;;;;;;11.06;90.84;102029.69;5054839;28;20029;-74
2021/03/26 08:42:17;;;;;;;13.65;9.63;;;;;;;10.92;91.48;102023.53;5039410;28;20025;-75
2021/03/26 08:45:09;;;;;;;12.32;9.43;;;;;;;11.39;89.36;102028.84;5040694;28;20363;-74
2021/03/26 08:48:34;;;;;;;15.68;9.48;;;;;;;11.69;87.63;102024.47;5055487;28;20029;-75
2021/03/26 08:51:41;;;;;;;14.32;9.80;;;;;;;11.93;88.07;102026.19;5038851;28;20039;-73
2021/03/26 08:54:51;;;;;;;15.05;9.98;;;;;;;11.78;87.16;102024.44;5039882;28;20433;-74
2021/03/26 08:58:06;;;;;;;12.70;9.40;;;;;;;12.54;85.54;102023.31;5053487;28;20021;-74
2021/03/26 09:01:42;;;;;;;13.15;10.15;;;;;;;11.89;86.03;102033.19;5043641;28;20465;-75
2021/03/26 09:04:56;;;;;;;14.95;9.38;;;;;;;11.54;87.29;102034.09;5018240;28;20120;-74
2021/03/26 09:08:07;;;;;;;12.52;9.50;;;;;;;12.22;86.97;102027.84;5054091;28;20341;-73
2021/03/26 09:11:12;;;;;;;14.70;9.85;;;;;;;12.19;83.07;102025.25;5039420;28;20021;-75
2021/03/26 09:14:31;;;;;;;14.10;9.90;;;;;;;11.85;84.18;102027.97;5039054;28;20559;-74
2021/03/26 09:17:29;;;;;;;13.80;10.15;;;;;;;12.46;84.84;102022.50;5053853;28;20067;-74
2021/03/26 09:20:21;;;;;;;16.55;10.48;;;;;;;12.25;84.28;102022.59;5053465;28;20029;-75
2021/03/26 09:23:45;;;;;;;15.55;9.70;;;;;;;12.23;84.85;102024.34;5053549;28;20021;-73
2021/03/26 09:26:48;;;;;;;17.67;12.80;;;;;;;12.59;83.35;102018.06;5053969;28;20029;-74
2021/03/26 09:29:34;;;;;;;15.98;11.10;;;;;;;12.32;81.68;102021.69;5053772;28;20512;-74
2021/03/26 09:32:41;;;;;;;19.85;10.75;;;;;;;12.94;82.33;102022.22;5052722;28;20044;-75
2021/03/26 09:35:36;;;;;;;18.30;11.70;;;;;;;12.31;84.62;102017.31;5053164;28;20358;-75
2021/03/26 09:38:26;;;;;;;14.18;10.07;;;;;;;12.26;83.82;102013.81;5053959;28;20051;-75
2021/03/26 09:41:24;;;;;;;15.80;10.07;;;;;;;12.56;85.24;102010.19;5053401;28;20404;-72
2021/03/26 09:44:35;;;;;;;13.77;9.55;;;;;;;12.21;84.37;102009.44;5052965;28;20436;-73
2021/03/26 09:47:39;;;;;;;14.00;8.73;;;;;;;12.13;81.87;102003.38;5053610;28;20021;-72
2021/03/26 09:50:57;;;;;;;13.23;9.18;;;;;;;11.77;85.19;102011.34;5054002;28;20025;-74
2021/03/26 09:53:44;;;;;;;12.20;9.00;;;;;;;12.18;82.27;102009.47;5022950;28;20035;-73
2021/03/26 09:56:47;;;;;;;10.88;8.27;;;;;;;12.47;78.33;102011.13;5053281;28;20127;-75
2021/03/26 09:59:55;;;;;;;12.77;8.68;;;;;;;11.90;82.28;102003.41;5053064;28;20310;-76
2021/03/26 10:03:05;;;;;;;12.25;8.63;;;;;;;12.19;80.18;102001.59;5059195;28;20025;-74
2021/03/26 10:06:06;;;;;;;13.82;8.48;;;;;;;12.52;78.27;101998.81;5045357;28;20365;-76
2021/03/26 10:09:03;;;;;;;11.00;8.30;;;;;;;13.11;78.21;101999.31;5059664;28;20032;-74
2021/03/26 10:12:02;;;;;;;12.38;8.13;;;;;;;12.86;74.99;101997.72;5058921;28;20041;-75
2021/03/26 10:15:03;;;;;;;11.23;7.55;;;;;;;12.39;75.37;101997.13;5045456;28;20072;-75
2021/03/26 10:18:11;;;;;;;10.02;7.25;;;;;;;12.38;76.61;101998.00;5060361;28;20025;-75
2021/03/26 10:21:02;;;;;;;10.30;7.28;;;;;;;12.88;74.59;101995.09;5058323;28;20048;-75
2021/03/26 10:24:10;;;;;;;12.25;7.10;;;;;;;12.63;73.41;101999.66;5059814;28;20111;-75
2021/03/26 10:27:17;;;;;;;11.30;7.00;;;;;;;13.11;69.23;101999.31;5060269;28;20027;-74
2021/03/26 10:30:25;;;;;;;9.68;7.20;;;;;;;12.22;70.64;102006.81;5059210;28;20048;-73
2021/03/26 10:33:14;;;;;;;9.48;6.68;;;;;;;13.15;71.84;102001.06;5060054;28;20031;-73
2021/03/26 10:36:12;;;;;;;10.15;6.72;;;;;;;13.24;65.26;102003.63;5045558;28;20078;-73
2021/03/26 10:39:16;;;;;;;10.68;7.13;;;;;;;13.23;67.76;101993.13;5060082;28;20043;-74
2021/03/26 10:42:20;;;;;;;10.40;7.00;;;;;;;12.85;67.98;101984.59;5059523;28;20017;-75
2021/03/26 10:45:45;;;;;;;11.05;6.65;;;;;;;13.13;65.69;101987.06;5059618;28;20041;-75
2021/03/26 10:48:54;;;;;;;11.52;7.55;;;;;;;12.68;69.31;101989.06;5059931;28;20310;-76
2021/03/26 10:51:46;;;;;;;10.63;6.78;;;;;;;13.10;67.67;101980.94;5059493;28;20040;-75
2021/03/26 10:54:55;;;;;;;8.93;6.97;;;;;;;13.58;65.15;101984.00;5059138;28;20070;-75
2021/03/26 10:57:55;;;;;;;9.80;6.20;;;;;;;13.74;60.94;101982.97;5046179;28;20078;-72
2021/03/26 11:00:45;;;;;;;12.93;6.93;;;;;;;13.88;60.84;101973.19;5060070;28;20029;-74
2021/03/26 11:03:40;;;;;;;10.40;6.53;;;;;;;13.70;57.70;101980.38;5045945;28;20036;-72
2021/03/26 11:06:52;;;;;;;13.63;6.18;;;;;;;13.95;57.37;101972.19;5045456;28;20024;-75
2021/03/26 11:09:55;;;;;;;8.63;6.28;;;;;;;13.99;57.37;101980.97;5059324;28;20067;-74
2021/03/26 11:12:47;;;;;;;8.25;6.07;;;;;;;14.04;57.64;101963.31;5043348;28;20469;-75
2021/03/26 11:15:38;;;;;;;10.38;6.10;;;;;;;14.25;56.59;101971.88;5057195;28;20036;-72
2021/03/26 11:18:39;;;;;;;9.10;6.40;;;;;;;14.42;57.47;101962.00;5056763;28;20021;-75
2021/03/26 11:21:36;;;;;;;8.93;5.95;;;;;;;14.59;57.16;101959.13;5055688;28;20433;-75
2021/03/26 11:24:23;;;;;;;11.50;6.90;;;;;;;14.31;57.68;101955.13;5042295;28;20125;-76
2021/03/26 11:27:37;;;;;;;8.73;6.13;;;;;;;13.91;55.78;101957.31;5056321;28;20047;-76
2021/03/26 11:30:55;;;;;;;10.95;6.35;;;;;;;14.16;52.62;101955.28;5055715;28;20023;-76
2021/03/26 11:33:55;;;;;;;13.25;6.90;;;;;;;13.68;52.73;101951.44;5055620;28;20029;-75
2021/03/26 11:36:59;;;;;;;13.98;6.40;;;;;;;14.52;51.95;101946.91;5055629;28;20060;-75
2021/03/26 11:40:07;;;;;;;8.80;6.22;;;;;;;14.46;52.70;101942.59;5056230;28;20056;-74
2021/03/26 11:43:05;;;;;;;10.88;6.15;;;;;;;14.82;51.88;101934.13;5042257;28;20111;-75
2021/03/26 11:46:00;;;;;;;9.77;6.45;;;;;;;14.75;48.84;101932.47;5040999;28;20092;-74
2021/03/26 11:49:01;;;;;;;7.63;6.00;;;;;;;15.03;47.20;101932.91;5041854;28;20087;-75
2021/03/26 11:52:05;;;;;;;10.85;6.68;;;;;;;15.35;46.13;101935.06;5054772;28;20017;-75
2021/03/26 11:55:12;;;;;;;8.85;6.40;;;;;;;15.21;48.29;101926.44;5056289;28;20021;-74
2021/03/26 11:58:06;;;;;;;7.82;5.88;;;;;;;15.09;48.41;101921.38;5040953;28;20029;-73
2021/03/26 12:01:02;;;;;;;9.05;5.97;;;;;;;14.45;47.85;101922.41;5055680;28;20087;-73
2021/03/26 12:04:30;;;;;;;10.40;6.35;;;;;;;15.34;46.88;101917.44;5030417;23;20057;-73
2021/03/26 12:07:21;;;;;;;8.75;6.30;;;;;;;15.05;48.52;101917.06;5013243;28;20033;-73
2021/03/26 12:10:07;;;;;;;9.15;6.50;;;;;;;15.66;47.42;101917.72;5035555;28;20064;-73
2021/03/26 12:13:12;;;;;;;9.63;6.38;;;;;;;15.02;46.07;101911.84;5046842;28;20445;-73
2021/03/26 12:16:08;;;;;;;9.02;6.25;;;;;;;15.03;46.91;101909.16;5040810;28;20029;-73
2021/03/26 12:19:03;;;;;;;9.75;5.57;;;;;;;15.30;46.28;101907.84;5055797;28;20048;-74
2021/03/26 12:22:00;;;;;;;13.88;6.45;;;;;;;15.23;47.17;101904.41;5055212;28;20415;-75
2021/03/26 12:25:01;;;;;;;9.73;6.22;;;;;;;14.90;45.77;101901.50;5053569;28;20021;-74
2021/03/26 12:27:50;;;;;;;9.05;6.53;;;;;;;15.39;46.63;101897.97;5055002;28;20090;-76
2021/03/26 12:30:50;;;;;;;9.85;6.22;;;;;;;15.93;45.77;101896.94;5055205;28;20025;-72
2021/03/26 12:33:43;;;;;;;11.63;6.40;;;;;;;15.54;46.09;101894.19;5054659;28;20025;-74
2021/03/26 12:36:41;;;;;;;12.75;6.80;;;;;;;14.91;46.20;101890.03;5054098;28;20036;-74
2021/03/26 12:39:40;;;;;;;9.55;6.13;;;;;;;14.97;45.09;101882.88;5055323;28;20445;-74
2021/03/26 12:42:38;;;;;;;12.18;6.60;;;;;;;15.58;43.67;101885.28;5054948;28;20117;-72
2021/03/26 12:45:41;;;;;;;15.25;8.07;;;;;;;15.87;44.42;101886.47;5041065;28;20028;-73
2021/03/26 12:48:44;;;;;;;8.18;5.68;;;;;;;15.47;43.11;101879.38;5039814;28;20040;-72
2021/03/26 12:51:42;;;;;;;9.45;6.15;;;;;;;15.99;43.28;101877.44;5054698;28;20047;-72
2021/03/26 12:54:36;;;;;;;9.43;6.55;;;;;;;15.34;42.68;101883.13;5055513;28;20195;-72
2021/03/26 12:57:27;;;;;;;9.18;6.43;;;;;;;15.01;43.76;101875.78;5054504;28;20029;-72
2021/03/26 13:00:22;;;;;;;10.10;6.40;;;;;;;14.73;43.88;101873.59;5040026;28;20079;-72
2021/03/26 13:03:18;;;;;;;8.90;5.93;;;;;;;14.60;43.71;101868.53;5054428;28;20052;-73
2021/03/26 13:06:18;;;;;;;9.80;6.40;;;;;;;14.68;43.73;101867.50;5054329;28;20039;-72
2021/03/26 13:09:27;;;;;;;9.60;6.55;;;;;;;14.96;44.47;101862.66;5039957;28;20041;-73
2021/03/26 13:12:22;;;;;;;11.75;7.90;;;;;;;15.40;43.76;101864.53;5054361;28;20028;-72
2021/03/26 13:15:26;;;;;;;13.00;7.72;;;;;;;15.38;42.05;101856.63;5054603;28;20031;-73
2021/03/26 13:18:14;;;;;;;9.23;6.43;;;;;;;15.68;41.71;101857.81;5039755;28;20067;-72
2021/03/26 13:21:27;;;;;;;10.30;5.85;;;;;;;15.78;40.98;101854.94;5054131;28;20040;-72
2021/03/26 13:24:13;;;;;;;12.90;5.97;;;;;;;15.38;40.93;101858.44;5054118;28;20043;-72
2021/03/26 13:27:20;;;;;;;8.73;6.03;;;;;;;15.04;41.51;101865.16;5054228;28;20029;-73
2021/03/26 13:30:17;;;;;;;8.82;6.00;;;;;;;14.80;41.77;101863.81;5054158;28;20060;-73
2021/03/26 13:33:12;;;;;;;7.78;6.20;;;;;;;14.54;42.20;101853.69;5054590;28;20361;-75
2021/03/26 13:36:06;;;;;;;17.33;6.63;;;;;;;14.75;42.26;101855.09;5053758;28;20480;-73
2021/03/26 13:38:58;;;;;;;10.90;5.32;;;;;;;14.87;40.01;101851.41;5054612;28;20036;-74